Time;durP1;ratioP1;P1;durP2;ratioP2;P2;SDS_P1;SDS_P2;PMS_P1;PMS_P2;Temp;Humidity;BMP_temperature;BMP_pressure;BME280_temperature;BME280_humidity;BME280_pressure;Samples;Min_cycle;Max_cycle;Signal;HPM_P1;HPM_P2
2022/01/21 00:00:28;;;;;;;7.13;3.90;;;-1.10;99.90;;;;;;5030815;28;20120;-76
2022/01/21 00:02:53;;;;;;;7.37;3.70;;;-1.10;99.90;;;;;;5030825;28;20044;-76
2022/01/21 00:05:21;;;;;;;10.00;3.87;;;-1.10;99.90;;;;;;5030315;28;20045;-76
2022/01/21 00:07:47;;;;;;;7.33;3.93;;;-1.10;99.90;;;;;;5030594;28;20105;-76
2022/01/21 00:10:13;;;;;;;12.77;4.40;;;-1.10;99.90;;;;;;5029497;28;20033;-76
2022/01/21 00:12:38;;;;;;;7.83;3.43;;;-1.10;99.90;;;;;;5030601;28;20021;-75
2022/01/21 00:15:07;;;;;;;11.07;3.53;;;-1.00;99.90;;;;;;5030564;28;20026;-76
2022/01/21 00:17:32;;;;;;;12.17;4.13;;;-1.10;99.90;;;;;;5030816;28;20025;-76
2022/01/21 00:30:08;;;;;;;10.17;3.33;;;-1.10;99.90;;;;;;5030434;28;20025;-76
2022/01/21 00:30:56;;;;;;;9.07;4.23;;;-1.00;99.90;;;;;;5011088;28;20032;-75
2022/01/21 00:33:22;;;;;;;7.10;3.80;;;-0.90;99.90;;;;;;5013171;28;20026;-76
2022/01/21 00:35:47;;;;;;;13.00;3.53;;;-0.80;99.90;;;;;;5030363;28;20088;-75
2022/01/21 00:38:14;;;;;;;11.97;4.27;;;-0.80;99.90;;;;;;5029172;28;20029;-75
2022/01/21 00:40:40;;;;;;;10.43;4.00;;;-0.90;99.90;;;;;;5030491;28;20382;-76
2022/01/21 00:43:30;;;;;;;9.60;3.50;;;-0.90;99.90;;;;;;5030294;28;20029;-76
2022/01/21 00:45:56;;;;;;;7.90;3.23;;;-0.80;99.90;;;;;;5010381;28;20073;-74
2022/01/21 00:48:22;;;;;;;14.17;3.97;;;-0.80;99.90;;;;;;5010826;28;20422;-76
2022/01/21 00:50:48;;;;;;;7.70;3.73;;;-0.80;99.90;;;;;;5014481;28;20045;-76
2022/01/21 00:53:14;;;;;;;12.07;3.80;;;-0.80;99.90;;;;;;5014705;28;20463;-76
2022/01/21 00:55:40;;;;;;;12.53;3.77;;;-0.80;99.90;;;;;;5033858;28;20101;-76
2022/01/21 00:58:06;;;;;;;8.33;3.80;;;-0.80;99.90;;;;;;5034082;28;20063;-75
2022/01/21 01:00:32;;;;;;;9.37;4.00;;;-0.80;99.90;;;;;;5033952;28;20022;-76
2022/01/21 01:02:59;;;;;;;13.70;4.07;;;-0.80;99.90;;;;;;5034067;28;20437;-74
2022/01/21 01:05:26;;;;;;;11.93;4.40;;;-0.70;99.90;;;;;;5033719;28;20053;-74
2022/01/21 01:07:53;;;;;;;9.60;3.43;;;-0.70;99.90;;;;;;5034021;28;20065;-75
2022/01/21 01:10:25;;;;;;;10.93;4.30;;;-0.70;99.90;;;;;;5034038;28;20405;-75
2022/01/21 01:19:51;;;;;;;9.33;3.70;;;-0.70;99.90;;;;;;5034172;28;20037;-75
2022/01/21 01:21:10;;;;;;;17.50;4.33;;;-0.60;99.90;;;;;;5014062;28;20067;-75
2022/01/21 01:24:00;;;;;;;16.10;4.97;;;-0.60;99.90;;;;;;5019534;28;20060;-75
2022/01/21 01:29:08;;;;;;;10.40;3.57;;;-0.50;99.90;;;;;;5033204;28;20040;-75
2022/01/21 01:31:33;;;;;;;10.10;4.10;;;-0.40;99.90;;;;;;5032273;28;20478;-75
2022/01/21 01:34:01;;;;;;;13.97;4.90;;;-0.40;99.90;;;;;;5033041;28;20040;-75
2022/01/21 01:36:27;;;;;;;10.07;4.47;;;-0.40;99.90;;;;;;5033259;28;20543;-75
2022/01/21 01:39:06;;;;;;;11.87;3.73;;;-0.30;99.90;;;;;;5033099;28;20029;-75
2022/01/21 01:41:39;;;;;;;11.00;4.50;;;-0.30;99.90;;;;;;5033519;28;20109;-76
2022/01/21 01:49:37;;;;;;;11.90;4.00;;;-0.30;99.90;;;;;;5033087;28;20033;-74
2022/01/21 01:52:06;;;;;;;13.70;4.47;;;-0.30;99.90;;;;;;5032926;28;20095;-75
2022/01/21 01:54:33;;;;;;;10.00;4.30;;;-0.30;99.90;;;;;;5032927;28;20386;-75
2022/01/21 01:56:59;;;;;;;7.63;4.73;;;-0.40;99.90;;;;;;5033006;28;20423;-75
2022/01/21 01:59:25;;;;;;;11.80;3.83;;;-0.40;99.90;;;;;;5032558;28;20148;-75
2022/01/21 02:01:56;;;;;;;9.43;3.63;;;-0.30;99.90;;;;;;5033111;28;20037;-75
2022/01/21 02:04:23;;;;;;;12.13;4.63;;;-0.30;99.90;;;;;;5032441;28;20053;-75
2022/01/21 02:06:49;;;;;;;11.90;4.77;;;-0.40;99.90;;;;;;5032879;28;20454;-75
2022/01/21 02:09:15;;;;;;;10.70;4.80;;;-0.40;99.90;;;;;;5032486;28;20048;-75
2022/01/21 02:11:41;;;;;;;16.23;4.23;;;-0.40;99.90;;;;;;5032920;28;20036;-76
2022/01/21 02:14:10;;;;;;;11.87;4.20;;;-0.30;99.90;;;;;;5032317;28;20356;-76
2022/01/21 02:21:29;;;;;;;16.97;4.17;;;-0.30;99.90;;;;;;5031532;28;20021;-76
2022/01/21 02:22:17;;;;;;;10.10;4.23;;;-0.10;99.90;;;;;;5033095;28;20071;-76
2022/01/21 02:24:53;;;;;;;9.53;3.80;;;-0.20;99.90;;;;;;5032251;28;20025;-76
2022/01/21 02:27:20;;;;;;;12.00;5.03;;;-0.30;99.90;;;;;;5032037;28;20018;-75
2022/01/21 02:29:48;;;;;;;12.60;4.20;;;-0.30;99.90;;;;;;5032251;28;20065;-75
2022/01/21 02:32:15;;;;;;;12.40;4.40;;;-0.30;99.90;;;;;;5032250;28;20471;-75
2022/01/21 02:34:42;;;;;;;10.00;3.67;;;-0.30;99.90;;;;;;5030891;28;20104;-75
2022/01/21 02:37:08;;;;;;;12.80;3.60;;;-0.20;99.90;;;;;;5031960;28;20017;-75
2022/01/21 02:39:34;;;;;;;9.40;3.73;;;-0.20;99.90;;;;;;5031941;28;20118;-75
2022/01/21 02:41:59;;;;;;;11.97;3.93;;;-0.20;99.90;;;;;;5030940;28;20068;-75
2022/01/21 02:44:25;;;;;;;16.17;4.33;;;-0.30;99.90;;;;;;5030572;28;20026;-75
2022/01/21 02:46:56;;;;;;;8.40;4.00;;;-0.30;99.90;;;;;;5031903;28;20040;-75
2022/01/21 02:49:22;;;;;;;8.93;3.40;;;-0.40;99.90;;;;;;5031318;28;20026;-75
2022/01/21 02:51:49;;;;;;;11.90;4.10;;;-0.40;99.90;;;;;;5031776;28;20022;-75
2022/01/21 02:54:14;;;;;;;11.27;3.73;;;-0.40;99.90;;;;;;5031635;28;20351;-76
2022/01/21 02:56:40;;;;;;;10.67;4.27;;;-0.40;99.90;;;;;;5031676;28;20030;-76
2022/01/21 02:59:08;;;;;;;12.77;4.30;;;-0.50;99.90;;;;;;5031567;28;20394;-75
2022/01/21 03:01:35;;;;;;;11.30;4.73;;;-0.50;99.90;;;;;;5031707;28;20090;-75
2022/01/21 03:04:02;;;;;;;12.20;4.47;;;-0.50;99.90;;;;;;5031437;28;20045;-76
2022/01/21 03:06:28;;;;;;;8.70;3.70;;;-0.50;99.90;;;;;;5031599;28;20025;-75
2022/01/21 03:08:57;;;;;;;11.70;4.63;;;-0.50;99.90;;;;;;5031398;28;20355;-76
2022/01/21 03:11:24;;;;;;;8.00;3.80;;;-0.50;99.90;;;;;;5030878;28;20029;-76
2022/01/21 03:13:51;;;;;;;13.73;4.37;;;-0.50;99.90;;;;;;5029888;28;20038;-76
2022/01/21 03:16:17;;;;;;;13.80;4.47;;;-0.40;99.90;;;;;;5031262;28;20100;-76
2022/01/21 03:18:42;;;;;;;11.03;4.40;;;-0.40;99.90;;;;;;5030157;28;20121;-76
2022/01/21 03:21:15;;;;;;;11.23;4.63;;;-0.40;99.90;;;;;;5031392;28;20052;-76
2022/01/21 03:23:41;;;;;;;8.43;4.00;;;-0.40;99.90;;;;;;5030163;28;20029;-76
2022/01/21 03:26:06;;;;;;;9.83;4.10;;;-0.40;99.90;;;;;;5030735;28;20116;-76
2022/01/21 03:28:32;;;;;;;18.93;4.90;;;-0.40;99.90;;;;;;5030976;28;20040;-76
2022/01/21 03:30:57;;;;;;;15.33;4.47;;;-0.40;99.90;;;;;;5030875;28;20030;-76
2022/01/21 03:33:25;;;;;;;9.73;3.80;;;-0.40;99.90;;;;;;5031026;28;20473;-76
2022/01/21 03:35:51;;;;;;;9.17;3.83;;;-0.40;99.90;;;;;;5021413;28;20017;-76
2022/01/21 03:38:18;;;;;;;11.07;4.43;;;-0.40;99.90;;;;;;5030747;28;20026;-76
2022/01/21 03:40:44;;;;;;;7.67;3.67;;;-0.40;99.90;;;;;;5030676;28;20025;-76
2022/01/21 03:43:12;;;;;;;8.17;3.83;;;-0.50;99.90;;;;;;5030849;28;20147;-76
2022/01/21 03:45:38;;;;;;;11.87;4.27;;;-0.50;99.90;;;;;;5030483;28;20053;-76
2022/01/21 03:48:04;;;;;;;12.30;4.60;;;-0.50;99.90;;;;;;5030371;28;20091;-76
2022/01/21 03:50:32;;;;;;;11.57;3.93;;;-0.40;99.90;;;;;;5030551;28;20463;-76
2022/01/21 03:52:59;;;;;;;11.07;4.17;;;-0.50;99.90;;;;;;5029181;28;20022;-76
2022/01/21 03:55:25;;;;;;;15.20;4.87;;;-0.50;99.90;;;;;;5030511;28;20025;-76
2022/01/21 03:57:51;;;;;;;10.30;3.93;;;-0.60;99.90;;;;;;5030365;28;20047;-76
2022/01/21 04:00:24;;;;;;;14.53;4.20;;;-0.60;99.90;;;;;;5030252;28;20116;-76
2022/01/21 04:02:50;;;;;;;13.70;4.97;;;-0.60;99.90;;;;;;5030472;28;20152;-76
2022/01/21 04:05:16;;;;;;;12.50;3.97;;;-0.60;99.90;;;;;;5030417;28;20045;-76
2022/01/21 04:07:42;;;;;;;10.20;4.17;;;-0.60;99.90;;;;;;5028960;28;20041;-76
2022/01/21 04:10:08;;;;;;;10.53;3.90;;;-0.60;99.90;;;;;;5030124;28;20375;-76
2022/01/21 04:12:34;;;;;;;13.97;4.93;;;-0.60;99.90;;;;;;5029248;28;20030;-76
2022/01/21 04:15:00;;;;;;;12.37;4.60;;;-0.60;99.90;;;;;;5030470;28;20026;-76
2022/01/21 04:17:26;;;;;;;12.33;4.47;;;-0.60;99.90;;;;;;5030438;28;20466;-76
2022/01/21 04:19:52;;;;;;;11.37;4.67;;;-0.70;99.90;;;;;;5030267;28;20025;-76
2022/01/21 04:22:18;;;;;;;11.30;5.30;;;-0.70;99.90;;;;;;5030853;28;20030;-77
2022/01/21 04:24:45;;;;;;;12.40;4.60;;;-0.70;99.90;;;;;;5029119;28;20770;-76
2022/01/21 04:27:12;;;;;;;11.97;4.20;;;-0.80;99.90;;;;;;5029265;28;20137;-76
2022/01/21 04:29:37;;;;;;;9.40;4.17;;;-0.70;99.90;;;;;;5030421;28;20033;-76
2022/01/21 04:32:04;;;;;;;11.73;5.00;;;-0.60;99.90;;;;;;5030653;28;20379;-77
2022/01/21 04:34:29;;;;;;;10.03;4.30;;;-0.60;99.90;;;;;;5030544;28;20469;-77
2022/01/21 04:36:55;;;;;;;9.60;4.17;;;-0.70;99.90;;;;;;5030491;28;20030;-76
2022/01/21 04:39:27;;;;;;;12.43;4.63;;;-0.70;99.90;;;;;;5030224;28;20104;-76
2022/01/21 04:47:22;;;;;;;12.27;4.80;;;-0.70;99.90;;;;;;5030243;28;20083;-76
2022/01/21 04:49:48;;;;;;;9.30;4.17;;;-0.60;99.90;;;;;;5028591;28;20466;-76
2022/01/21 04:52:14;;;;;;;12.23;4.53;;;-0.60;99.90;;;;;;5030243;28;20026;-76
2022/01/21 04:54:39;;;;;;;12.43;4.53;;;-0.60;99.90;;;;;;5030072;28;20021;-76
2022/01/21 04:57:06;;;;;;;13.90;4.47;;;-0.60;99.90;;;;;;5029717;28;20454;-76
2022/01/21 04:59:32;;;;;;;11.70;4.67;;;-0.60;99.90;;;;;;5030260;28;20048;-75
2022/01/21 05:01:58;;;;;;;10.93;5.07;;;-0.70;99.90;;;;;;5030041;28;20025;-75
2022/01/21 05:04:25;;;;;;;13.70;4.60;;;-0.60;99.90;;;;;;5029929;28;20107;-75
2022/01/21 05:06:52;;;;;;;11.87;4.30;;;-0.60;99.90;;;;;;5030069;28;20382;-75
2022/01/21 05:09:18;;;;;;;11.63;4.93;;;-0.60;99.90;;;;;;5029831;28;20042;-76
2022/01/21 05:11:46;;;;;;;12.33;5.20;;;-0.60;99.90;;;;;;5030183;28;20018;-76
2022/01/21 05:14:24;;;;;;;19.00;4.73;;;-0.60;99.90;;;;;;5028194;28;20643;-76
2022/01/21 05:16:53;;;;;;;9.53;4.80;;;-0.60;99.90;;;;;;5029577;28;20075;-75
2022/01/21 05:19:19;;;;;;;13.67;4.37;;;-0.60;99.90;;;;;;5026501;28;20084;-75
2022/01/21 05:21:48;;;;;;;19.03;5.20;;;-0.50;99.90;;;;;;5026825;28;20087;-76
2022/01/21 05:24:16;;;;;;;13.70;3.63;;;-0.50;99.90;;;;;;5026772;28;20021;-75
2022/01/21 05:26:52;;;;;;;13.23;5.00;;;-0.40;99.90;;;;;;5026578;28;20061;-75
2022/01/21 05:29:18;;;;;;;17.43;4.70;;;-0.50;99.90;;;;;;5028659;28;20032;-75
2022/01/21 05:31:44;;;;;;;11.60;4.23;;;-0.40;99.90;;;;;;5026216;28;20018;-76
2022/01/21 05:34:09;;;;;;;12.60;4.67;;;-0.50;99.90;;;;;;5028093;28;20533;-76
2022/01/21 05:36:37;;;;;;;15.97;4.43;;;-0.40;99.90;;;;;;5032681;28;20036;-76
2022/01/21 05:39:03;;;;;;;9.00;3.23;;;-0.40;99.90;;;;;;5029260;28;20026;-76
2022/01/21 05:41:29;;;;;;;13.47;4.13;;;-0.20;99.90;;;;;;5031528;28;20381;-76
2022/01/21 05:44:05;;;;;;;10.87;3.73;;;-0.20;99.90;;;;;;5031300;28;20026;-76
2022/01/21 05:49:11;;;;;;;9.33;2.93;;;-0.20;99.90;;;;;;5030497;28;20032;-76
2022/01/21 05:51:37;;;;;;;9.70;3.10;;;-0.20;99.90;;;;;;5030464;28;20339;-76
2022/01/21 05:54:04;;;;;;;10.47;2.80;;;-0.10;99.90;;;;;;5030333;28;20041;-77
2022/01/21 05:56:30;;;;;;;6.63;2.50;;;-0.20;99.90;;;;;;5031788;28;20024;-76
2022/01/21 05:58:56;;;;;;;10.83;2.70;;;-0.30;99.90;;;;;;5029599;28;20025;-76
2022/01/21 06:01:22;;;;;;;8.63;2.60;;;0.00;99.90;;;;;;5025689;28;20022;-76
2022/01/21 06:03:49;;;;;;;8.33;2.83;;;0.00;99.90;;;;;;5031451;28;20148;-76
2022/01/21 06:06:14;;;;;;;7.33;2.47;;;0.10;99.90;;;;;;5032536;28;20029;-76
2022/01/21 06:08:40;;;;;;;8.17;2.67;;;0.10;99.90;;;;;;5026784;28;20083;-78
2022/01/21 06:11:08;;;;;;;13.20;2.87;;;-0.20;99.90;;;;;;5025544;28;20493;-77
2022/01/21 06:13:35;;;;;;;10.63;3.07;;;-0.40;99.90;;;;;;5021721;28;20453;-77
2022/01/21 06:16:00;;;;;;;11.03;3.00;;;-0.60;99.90;;;;;;5021575;28;20017;-76
2022/01/21 06:18:26;;;;;;;10.60;2.97;;;-0.50;99.90;;;;;;5022708;28;20038;-76
2022/01/21 06:20:52;;;;;;;9.03;3.00;;;-0.50;99.90;;;;;;5017001;28;20025;-77
2022/01/21 06:23:19;;;;;;;6.03;2.70;;;-0.60;99.90;;;;;;5029719;28;20030;-76
2022/01/21 06:25:45;;;;;;;16.80;3.30;;;-0.60;99.90;;;;;;5032376;28;20107;-76
2022/01/21 06:28:11;;;;;;;11.90;3.77;;;-0.80;99.90;;;;;;5030543;28;20034;-76
2022/01/21 06:30:37;;;;;;;12.30;4.90;;;-0.80;99.90;;;;;;5032529;28;20057;-75
2022/01/21 06:33:03;;;;;;;14.23;3.17;;;-0.90;99.90;;;;;;5033220;28;20458;-80
2022/01/21 06:35:29;;;;;;;13.57;3.50;;;-0.90;99.90;;;;;;5033455;28;20084;-80
2022/01/21 06:37:54;;;;;;;13.57;3.20;;;-1.00;99.90;;;;;;5033176;28;20017;-80
2022/01/21 06:40:20;;;;;;;10.17;3.23;;;-1.00;99.90;;;;;;5031510;28;20032;-80
2022/01/21 06:42:47;;;;;;;9.63;3.40;;;-1.00;99.90;;;;;;5033313;28;20021;-80
2022/01/21 06:45:13;;;;;;;11.77;3.67;;;-1.10;99.90;;;;;;5031035;28;20497;-76
2022/01/21 06:47:38;;;;;;;10.47;3.97;;;-1.20;99.90;;;;;;5030844;28;20025;-76
2022/01/21 06:50:05;;;;;;;13.43;3.50;;;-1.20;99.90;;;;;;5031753;28;20052;-76
2022/01/21 06:52:31;;;;;;;11.00;3.83;;;-1.30;99.90;;;;;;5031958;28;20056;-76
2022/01/21 06:54:58;;;;;;;12.50;4.97;;;-1.30;99.90;;;;;;5030511;28;20025;-76
2022/01/21 06:57:24;;;;;;;12.37;4.23;;;-1.30;99.90;;;;;;5031840;28;20037;-80
2022/01/21 06:59:49;;;;;;;12.33;3.60;;;-1.40;99.90;;;;;;5032328;28;20389;-75
2022/01/21 07:02:18;;;;;;;13.90;3.87;;;-1.40;99.90;;;;;;5032278;28;20104;-75
2022/01/21 07:04:48;;;;;;;14.43;3.73;;;-1.50;99.90;;;;;;5030374;28;20101;-76
2022/01/21 07:07:17;;;;;;;12.47;4.07;;;-1.50;99.90;;;;;;5027010;28;20026;-76
2022/01/21 07:09:43;;;;;;;12.17;4.73;;;-1.60;99.90;;;;;;5011980;28;20030;-75
2022/01/21 07:12:09;;;;;;;11.57;4.03;;;-1.60;99.90;;;;;;5012449;28;20040;-76
2022/01/21 07:14:35;;;;;;;14.43;5.70;;;-1.60;99.90;;;;;;5013938;28;20033;-76
2022/01/21 07:17:01;;;;;;;12.87;4.00;;;-1.60;99.90;;;;;;5031033;28;20039;-80
2022/01/21 07:19:27;;;;;;;12.83;4.40;;;-1.60;99.90;;;;;;5031118;28;20037;-76
2022/01/21 07:21:52;;;;;;;13.50;5.00;;;-1.60;99.90;;;;;;5031673;28;20029;-76
2022/01/21 07:24:19;;;;;;;16.23;5.27;;;-1.50;99.90;;;;;;5030478;28;20025;-76
2022/01/21 07:26:44;;;;;;;14.50;4.97;;;-1.50;99.90;;;;;;5031629;28;20021;-76
2022/01/21 07:29:10;;;;;;;13.00;5.00;;;-1.50;99.90;;;;;;5030431;28;20043;-80
2022/01/21 07:31:36;;;;;;;15.40;5.07;;;-1.40;99.90;;;;;;5030562;28;20045;-80
2022/01/21 07:34:04;;;;;;;12.80;5.97;;;-1.40;99.90;;;;;;5031057;28;20034;-81
2022/01/21 07:36:31;;;;;;;13.83;4.43;;;-1.30;99.90;;;;;;5029940;28;20033;-80
2022/01/21 07:38:57;;;;;;;17.20;4.97;;;-1.30;99.90;;;;;;5031811;28;20096;-80
2022/01/21 07:41:23;;;;;;;12.50;4.43;;;-1.40;99.90;;;;;;5030941;28;20039;-76
2022/01/21 07:43:48;;;;;;;15.07;4.40;;;-1.40;99.90;;;;;;5030180;28;20025;-76
2022/01/21 07:46:15;;;;;;;12.67;4.80;;;-1.40;99.90;;;;;;5029834;28;20547;-77
2022/01/21 07:48:41;;;;;;;18.10;6.40;;;-1.50;99.90;;;;;;5030565;28;20060;-77
2022/01/21 07:51:06;;;;;;;14.27;5.67;;;-1.50;99.90;;;;;;5030381;28;20443;-77
2022/01/21 07:53:32;;;;;;;17.77;5.40;;;-1.50;99.90;;;;;;5030714;28;20030;-76
2022/01/21 07:55:58;;;;;;;16.93;6.77;;;-1.40;99.90;;;;;;5030614;28;20029;-77
2022/01/21 07:58:23;;;;;;;16.13;5.07;;;-1.40;99.90;;;;;;5028929;28;20366;-76
2022/01/21 08:00:49;;;;;;;15.63;5.07;;;-1.40;99.90;;;;;;5025753;28;20029;-76
2022/01/21 08:03:15;;;;;;;15.30;5.30;;;-1.30;99.90;;;;;;5028232;28;20028;-76
2022/01/21 08:05:43;;;;;;;15.77;5.43;;;-1.40;99.90;;;;;;5021325;28;20022;-75
2022/01/21 08:08:09;;;;;;;19.43;5.43;;;-1.30;99.90;;;;;;5012654;28;20024;-76
2022/01/21 08:10:34;;;;;;;12.90;5.03;;;-1.40;99.90;;;;;;5016552;28;20470;-75
2022/01/21 08:13:00;;;;;;;15.23;5.40;;;-1.30;99.90;;;;;;5010689;28;20068;-75
2022/01/21 08:15:27;;;;;;;14.80;5.83;;;-1.40;99.90;;;;;;5020177;28;20032;-80
2022/01/21 08:17:55;;;;;;;15.93;5.40;;;-1.30;99.90;;;;;;5029397;28;20379;-79
2022/01/21 08:20:21;;;;;;;12.83;4.90;;;-1.30;99.90;;;;;;5025676;28;20088;-76
2022/01/21 08:22:46;;;;;;;15.93;5.30;;;-1.20;99.90;;;;;;5010663;28;20034;-76
2022/01/21 08:25:12;;;;;;;13.67;4.90;;;-1.10;99.90;;;;;;5010884;28;20084;-76
2022/01/21 08:27:38;;;;;;;13.57;4.83;;;-1.10;99.90;;;;;;5021720;28;20069;-75
2022/01/21 08:30:05;;;;;;;9.17;4.80;;;-1.10;99.90;;;;;;5027682;28;20434;-76
2022/01/21 08:32:31;;;;;;;14.97;4.77;;;-1.00;99.90;;;;;;5027915;28;20030;-81
2022/01/21 08:34:56;;;;;;;13.20;5.37;;;-0.90;99.90;;;;;;5027059;28;20040;-80
2022/01/21 08:37:22;;;;;;;10.47;4.83;;;-0.80;99.90;;;;;;5027359;28;20082;-80
2022/01/21 08:39:48;;;;;;;15.00;6.03;;;-0.80;99.90;;;;;;5026836;28;20113;-80
2022/01/21 08:42:13;;;;;;;14.90;5.40;;;-0.70;99.90;;;;;;5015552;28;20443;-76
2022/01/21 08:44:42;;;;;;;13.13;5.03;;;-0.80;99.90;;;;;;5017743;28;20473;-80
2022/01/21 08:47:09;;;;;;;16.90;4.83;;;-0.90;99.90;;;;;;5012312;28;20022;-80
2022/01/21 08:49:35;;;;;;;17.17;6.13;;;-0.90;99.90;;;;;;5012400;28;20097;-83
2022/01/21 08:52:01;;;;;;;12.13;4.87;;;-0.80;99.90;;;;;;5012343;28;20021;-81
2022/01/21 08:54:28;;;;;;;15.60;4.83;;;-0.80;99.90;;;;;;5024379;28;20467;-81
2022/01/21 08:56:54;;;;;;;11.80;4.50;;;-0.80;99.90;;;;;;5024705;28;20037;-76
2022/01/21 08:59:21;;;;;;;12.03;4.77;;;-0.80;99.90;;;;;;5021988;28;20080;-77
2022/01/21 09:01:51;;;;;;;14.87;5.30;;;-0.80;99.90;;;;;;5024987;28;20060;-81
2022/01/21 09:04:17;;;;;;;15.00;5.03;;;-0.80;99.90;;;;;;5025455;28;20512;-76
2022/01/21 09:06:43;;;;;;;16.00;4.43;;;-0.80;99.90;;;;;;5027276;28;20030;-76
2022/01/21 09:09:09;;;;;;;12.33;4.40;;;-0.80;99.90;;;;;;5026252;28;20565;-76
2022/01/21 09:11:35;;;;;;;9.23;5.00;;;-0.70;99.90;;;;;;5031514;28;20030;-75
2022/01/21 09:14:01;;;;;;;16.27;5.67;;;-0.70;99.90;;;;;;5029274;28;20053;-75
2022/01/21 09:16:27;;;;;;;14.57;4.60;;;-0.60;99.90;;;;;;5029464;28;20017;-81
2022/01/21 09:18:57;;;;;;;14.40;4.40;;;-0.50;99.90;;;;;;5028500;28;20037;-81
2022/01/21 09:21:26;;;;;;;10.87;4.07;;;-0.40;99.90;;;;;;5028320;28;20080;-81
2022/01/21 09:23:53;;;;;;;14.93;4.93;;;-0.30;99.90;;;;;;5025621;28;20089;-82
2022/01/21 09:26:22;;;;;;;12.40;4.27;;;-0.20;99.90;;;;;;5029677;28;20091;-81
2022/01/21 09:28:48;;;;;;;18.50;5.67;;;-0.10;99.90;;;;;;5027807;28;20543;-81
2022/01/21 09:31:15;;;;;;;12.90;3.80;;;-0.10;99.90;;;;;;5028372;28;20026;-81
2022/01/21 09:33:40;;;;;;;11.70;4.03;;;-0.10;99.90;;;;;;5028849;28;20358;-80
2022/01/21 09:36:08;;;;;;;12.17;4.77;;;-0.10;99.90;;;;;;5027161;28;20079;-76
2022/01/21 09:38:34;;;;;;;17.77;4.63;;;-0.10;99.90;;;;;;5029179;28;20041;-80
2022/01/21 09:41:00;;;;;;;12.97;3.47;;;0.00;99.90;;;;;;5029046;28;20725;-76
2022/01/21 09:43:26;;;;;;;14.03;3.63;;;0.00;99.90;;;;;;5028233;28;20031;-76
2022/01/21 09:45:55;;;;;;;13.27;4.23;;;0.00;99.90;;;;;;5026274;28;20580;-76
2022/01/21 09:48:29;;;;;;;11.80;4.47;;;0.00;99.90;;;;;;5028529;28;20026;-76
2022/01/21 09:50:59;;;;;;;13.70;3.73;;;0.00;99.90;;;;;;5027428;28;20030;-74
2022/01/21 09:53:31;;;;;;;15.17;4.30;;;0.10;99.90;;;;;;5030931;28;20025;-75
2022/01/21 09:56:03;;;;;;;13.67;3.50;;;0.30;99.90;;;;;;5027023;28;20450;-76
2022/01/21 09:58:29;;;;;;;8.70;3.73;;;0.30;99.90;;;;;;5025901;28;20888;-76
2022/01/21 10:01:01;;;;;;;10.13;3.53;;;0.30;99.90;;;;;;5027100;28;20111;-77
2022/01/21 10:03:26;;;;;;;21.20;4.97;;;0.10;99.90;;;;;;5029753;28;20036;-77
2022/01/21 10:05:53;;;;;;;14.80;4.30;;;0.10;99.90;;;;;;5030082;28;20078;-75
2022/01/21 10:08:22;;;;;;;13.37;4.10;;;0.10;99.90;;;;;;5048658;28;20041;-76
2022/01/21 10:10:48;;;;;;;11.63;4.23;;;0.10;99.90;;;;;;5033817;28;20033;-82
2022/01/21 10:13:19;;;;;;;12.37;4.00;;;0.30;99.90;;;;;;5034898;28;20030;-82
2022/01/21 10:15:46;;;;;;;11.23;4.20;;;0.40;99.90;;;;;;5035009;28;20031;-83
2022/01/21 10:18:16;;;;;;;14.37;4.23;;;0.60;99.90;;;;;;5034817;28;20037;-82
2022/01/21 10:21:02;;;;;;;11.70;4.50;;;0.70;99.90;;;;;;5035050;28;20379;-82
2022/01/21 10:23:30;;;;;;;13.50;4.53;;;0.80;99.90;;;;;;5015426;28;20026;-77
2022/01/21 10:26:05;;;;;;;8.50;4.10;;;0.90;99.90;;;;;;5018124;28;20030;-77
2022/01/21 10:28:31;;;;;;;;;;;0.90;99.90;;;;;;5017848;28;20128;-77
2022/01/21 10:31:09;;;;;;;12.07;4.30;;;0.80;99.90;;;;;;5023998;28;20389;-82
2022/01/21 10:33:43;;;;;;;12.93;4.90;;;0.70;99.90;;;;;;5034770;28;20478;-82
2022/01/21 10:36:20;;;;;;;14.50;5.13;;;0.60;99.90;;;;;;5034670;28;20075;-81
2022/01/21 10:38:49;;;;;;;20.90;6.90;;;0.60;99.90;;;;;;5034476;28;20426;-81
2022/01/21 10:41:17;;;;;;;17.40;4.80;;;0.60;99.90;;;;;;5029713;28;20018;-77
2022/01/21 10:43:44;;;;;;;10.80;5.33;;;0.60;99.90;;;;;;5047353;28;20030;-78
2022/01/21 10:46:15;;;;;;;11.60;4.60;;;0.70;99.90;;;;;;5030248;28;20044;-77
2022/01/21 10:49:07;;;;;;;18.23;4.23;;;0.70;99.90;;;;;;5032082;28;20048;-76
2022/01/21 10:51:36;;;;;;;10.70;3.73;;;0.90;99.90;;;;;;5031564;28;20040;-78
2022/01/21 10:54:15;;;;;;;20.13;3.83;;;1.00;99.90;;;;;;5030184;28;20025;-78
2022/01/21 10:57:00;;;;;;;16.03;3.83;;;1.10;99.90;;;;;;5031957;28;20021;-83
2022/01/21 10:59:58;;;;;;;21.77;5.22;;;1.00;99.90;;;;;;5031643;28;20366;-83
2022/01/21 11:02:54;;;;;;;15.83;4.13;;;1.00;99.90;;;;;;5032836;28;20034;-78
2022/01/21 11:05:32;;;;;;;;;;;1.00;99.90;;;;;;5031969;28;20128;-79
2022/01/21 11:08:08;;;;;;;11.87;3.60;;;1.00;99.90;;;;;;5030374;28;19905;-75
2022/01/21 11:10:36;;;;;;;16.17;3.47;;;1.00;99.90;;;;;;5030827;28;20037;-75
2022/01/21 11:13:10;;;;;;;11.10;3.13;;;0.90;99.90;;;;;;5031078;28;20022;-79
2022/01/21 11:16:05;;;;;;;10.30;3.42;;;0.70;99.90;;;;;;5033721;28;20074;-83
2022/01/21 11:18:31;;;;;;;11.83;3.00;;;0.60;99.90;;;;;;5034748;28;20041;-84
2022/01/21 11:21:06;;;;;;;7.33;3.10;;;0.60;99.90;;;;;;5033147;28;20111;-84
2022/01/21 11:23:33;;;;;;;19.25;3.95;;;0.40;99.90;;;;;;5033160;28;20040;-85
2022/01/21 11:26:01;;;;;;;9.70;3.27;;;0.40;99.90;;;;;;5034126;28;20029;-79
2022/01/21 11:28:35;;;;;;;10.80;3.17;;;0.30;99.90;;;;;;5033816;28;20033;-81
2022/01/21 11:31:01;;;;;;;9.63;2.73;;;0.40;99.90;;;;;;5032442;28;20025;-80
2022/01/21 11:33:26;;;;;;;7.50;2.93;;;0.60;99.90;;;;;;5033382;28;20075;-81
2022/01/21 11:35:53;;;;;;;10.77;3.93;;;0.90;99.90;;;;;;5032504;28;20076;-82
2022/01/21 11:38:20;;;;;;;9.57;3.60;;;1.10;99.90;;;;;;5033845;28;20163;-81
2022/01/21 11:40:48;;;;;;;11.77;3.07;;;1.00;99.90;;;;;;5033744;28;20029;-81
2022/01/21 11:43:15;;;;;;;17.37;4.63;;;1.00;99.90;;;;;;5032911;28;20021;-80
2022/01/21 11:51:23;;;;;;;9.60;2.80;;;1.10;99.90;;;;;;5033977;28;20563;-81
2022/01/21 11:54:05;;;;;;;9.38;2.70;;;1.00;99.90;;;;;;5034217;28;20515;-80
2022/01/21 11:56:42;;;;;;;9.50;2.60;;;1.00;99.90;;;;;;5033586;28;20073;-81
2022/01/21 11:59:10;;;;;;;9.27;2.57;;;1.20;99.90;;;;;;5033448;28;20112;-83
2022/01/21 12:01:47;;;;;;;9.77;2.83;;;1.30;99.90;;;;;;5024528;28;20021;-87
2022/01/21 12:04:33;;;;;;;14.63;2.20;;;1.40;99.90;;;;;;5026396;28;20090;-86
2022/01/21 12:06:59;;;;;;;8.87;2.57;;;1.60;99.90;;;;;;5032376;28;20040;-87
2022/01/21 12:09:57;;;;;;;11.07;2.70;;;1.70;99.90;;;;;;5026062;28;20036;-87
2022/01/21 12:12:25;;;;;;;8.87;3.37;;;1.80;99.90;;;;;;5029237;28;20029;-80
2022/01/21 12:14:58;;;;;;;8.70;2.57;;;1.90;99.90;;;;;;5033028;28;20049;-81
2022/01/21 12:17:47;;;;;;;11.50;2.90;;;1.80;99.90;;;;;;5033105;28;20033;-80
2022/01/21 12:20:13;;;;;;;13.60;3.23;;;1.80;99.90;;;;;;5032978;28;20091;-81
2022/01/21 12:22:39;;;;;;;10.07;2.90;;;1.80;99.90;;;;;;5033573;28;20037;-81
2022/01/21 12:25:10;;;;;;;11.40;3.07;;;1.90;99.90;;;;;;5031907;28;20175;-81
2022/01/21 12:27:38;;;;;;;14.27;3.53;;;1.80;99.90;;;;;;5031582;28;20418;-81
2022/01/21 12:30:28;;;;;;;14.23;3.83;;;1.90;99.90;;;;;;5033215;28;20040;-81
2022/01/21 12:33:08;;;;;;;10.30;3.30;;;1.80;99.90;;;;;;5033458;28;20099;-81
2022/01/21 12:35:34;;;;;;;15.17;3.80;;;1.80;99.90;;;;;;5032762;28;20559;-79
2022/01/21 12:40:56;;;;;;;11.17;3.80;;;1.60;99.90;;;;;;5031158;28;20040;-79
2022/01/21 12:43:40;;;;;;;14.73;3.97;;;1.50;99.90;;;;;;5030999;28;20116;-79
2022/01/21 12:46:14;;;;;;;9.40;3.60;;;1.40;99.90;;;;;;5032527;28;20561;-79
2022/01/21 12:48:40;;;;;;;9.07;3.27;;;1.60;99.90;;;;;;5020825;28;20824;-81
2022/01/21 12:51:15;;;;;;;9.90;3.27;;;1.70;99.90;;;;;;5030351;28;20079;-81
2022/01/21 12:55:55;;;;;;;9.13;3.50;;;1.80;99.90;;;;;;5029937;28;20032;-81
2022/01/21 12:56:33;;;;;;;12.93;3.43;;;1.90;99.90;;;;;;5030137;28;20322;-81
2022/01/21 12:58:59;;;;;;;11.40;3.00;;;2.00;99.90;;;;;;5027210;28;20025;-81
2022/01/21 13:01:24;;;;;;;15.70;3.73;;;2.10;99.90;;;;;;5030214;28;20484;-80
2022/01/21 13:04:02;;;;;;;7.03;3.00;;;2.10;99.90;;;;;;5032423;28;20075;-79
2022/01/21 13:06:37;;;;;;;9.90;3.37;;;2.00;99.90;;;;;;5027036;28;20163;-79
2022/01/21 13:09:11;;;;;;;12.57;2.83;;;2.00;99.90;;;;;;5031632;28;20021;-79
2022/01/21 13:11:43;;;;;;;11.43;2.85;;;2.00;99.90;;;;;;5032003;28;20526;-79
2022/01/21 13:14:57;;;;;;;15.33;2.77;;;2.10;99.90;;;;;;5031587;28;20140;-79
2022/01/21 13:17:08;;;;;;;10.87;2.60;;;2.00;99.90;;;;;;5024067;28;20045;-80
2022/01/21 13:19:53;;;;;;;9.60;3.27;;;2.10;99.90;;;;;;5031805;28;20037;-80
2022/01/21 13:22:31;;;;;;;12.53;3.10;;;2.10;99.90;;;;;;5030214;28;20037;-81
2022/01/21 13:25:13;;;;;;;11.37;3.07;;;2.10;99.90;;;;;;5029527;28;20056;-80
2022/01/21 13:27:53;;;;;;;10.27;2.63;;;2.20;99.90;;;;;;5031680;28;20033;-75
2022/01/21 13:30:21;;;;;;;9.93;2.83;;;2.20;99.90;;;;;;5032510;28;20507;-75
2022/01/21 13:32:56;;;;;;;7.17;2.50;;;2.10;99.90;;;;;;5033451;28;20060;-75